createdAt,value
2019-01-08T00:00:10.629Z,8.45
2019-01-08T00:02:38.942Z,8.50
2019-01-08T00:05:07.258Z,8.51
2019-01-08T00:07:35.562Z,8.50
2019-01-08T00:10:04.710Z,8.49
2019-01-08T00:12:33.250Z,8.49
2019-01-08T00:15:01.558Z,8.46
2019-01-08T00:17:29.857Z,8.44
2019-01-08T00:19:58.175Z,8.38
2019-01-08T00:22:26.479Z,8.28
2019-01-08T00:24:54.785Z,8.14
2019-01-08T00:27:23.085Z,8.08
2019-01-08T00:29:51.371Z,8.05
2019-01-08T00:32:19.681Z,8.05
2019-01-08T00:34:48.742Z,8.02
2019-01-08T00:37:17.059Z,8.05
2019-01-08T00:39:45.343Z,8.04
2019-01-08T00:42:13.663Z,7.99
2019-01-08T00:44:41.970Z,7.93
2019-01-08T00:47:10.273Z,7.89
2019-01-08T00:49:38.591Z,7.86
2019-01-08T00:52:06.876Z,7.85
2019-01-08T00:54:35.176Z,7.85
2019-01-08T00:57:03.470Z,7.86
2019-01-08T00:59:31.782Z,7.86
2019-01-08T01:02:00.091Z,7.85
2019-01-08T01:04:28.624Z,7.81
2019-01-08T01:06:56.929Z,7.74
2019-01-08T01:09:25.230Z,7.70
2019-01-08T01:11:53.548Z,7.63
2019-01-08T01:14:22.097Z,7.57
2019-01-08T01:16:50.666Z,7.45
2019-01-08T01:19:18.968Z,7.45
2019-01-08T01:21:47.289Z,7.41
2019-01-08T01:24:15.580Z,7.41
2019-01-08T01:26:43.896Z,7.42
2019-01-08T01:29:12.214Z,7.39
2019-01-08T01:31:40.504Z,7.34
2019-01-08T01:34:08.807Z,7.33
2019-01-08T01:36:37.104Z,7.32
2019-01-08T01:39:06.243Z,7.34
2019-01-08T01:41:34.791Z,7.29
2019-01-08T01:44:03.145Z,7.34
2019-01-08T01:46:31.444Z,7.37
2019-01-08T01:48:59.727Z,7.41
2019-01-08T01:51:28.033Z,7.42
2019-01-08T01:53:56.339Z,7.44
2019-01-08T01:56:24.648Z,7.45
2019-01-08T01:58:52.946Z,7.43
2019-01-08T02:01:21.345Z,7.40
2019-01-08T02:03:49.649Z,7.41
2019-01-08T02:06:18.291Z,7.44
2019-01-08T02:08:46.833Z,7.42
2019-01-08T02:11:15.115Z,7.43
2019-01-08T02:13:43.417Z,7.43
2019-01-08T02:16:11.704Z,7.37
2019-01-08T02:18:40.012Z,7.34
2019-01-08T02:21:08.311Z,7.30
2019-01-08T02:23:36.643Z,7.30
2019-01-08T02:26:04.924Z,7.30
2019-01-08T02:28:33.209Z,7.34
2019-01-08T02:31:01.523Z,7.35
2019-01-08T02:33:29.819Z,7.38
2019-01-08T02:35:58.133Z,7.38
2019-01-08T02:38:26.420Z,7.37
2019-01-08T02:40:54.733Z,7.36
2019-01-08T02:43:23.279Z,7.39
2019-01-08T02:45:51.595Z,7.39
2019-01-08T02:48:19.940Z,7.41
2019-01-08T02:50:48.184Z,7.40
2019-01-08T02:53:16.484Z,7.38
2019-01-08T02:55:44.773Z,7.34
2019-01-08T02:58:13.077Z,7.37
2019-01-08T03:00:41.606Z,7.38
2019-01-08T03:03:09.912Z,7.39
2019-01-08T03:05:38.223Z,7.44
2019-01-08T03:08:06.530Z,7.45
2019-01-08T03:10:34.898Z,7.41
2019-01-08T03:13:03.184Z,7.39
2019-01-08T03:15:31.480Z,7.35
2019-01-08T03:17:59.764Z,7.30
2019-01-08T03:20:28.077Z,7.36
2019-01-08T03:22:56.360Z,7.40
2019-01-08T03:25:24.684Z,7.36
2019-01-08T03:27:53.211Z,7.30
2019-01-08T03:30:21.574Z,7.29
2019-01-08T03:32:49.919Z,7.33
2019-01-08T03:35:18.155Z,7.37
2019-01-08T03:37:46.472Z,7.37
2019-01-08T03:40:14.777Z,7.31
2019-01-08T03:42:43.064Z,7.27
2019-01-08T03:45:11.377Z,7.24
2019-01-08T03:47:39.675Z,7.18
2019-01-08T03:50:09.137Z,7.21
2019-01-08T03:52:37.434Z,7.21
2019-01-08T03:55:05.868Z,7.22
2019-01-08T03:57:34.178Z,7.22
2019-01-08T04:00:02.831Z,7.13
2019-01-08T04:02:31.133Z,7.06
2019-01-08T04:04:59.424Z,7.04
2019-01-08T04:07:27.998Z,7.03
2019-01-08T04:09:56.280Z,7.11
2019-01-08T04:12:24.580Z,7.07
2019-01-08T04:14:52.895Z,7.06
2019-01-08T04:17:21.444Z,7.07
2019-01-08T04:19:49.743Z,7.06
2019-01-08T04:22:18.289Z,7.14
2019-01-08T04:24:46.590Z,7.20
2019-01-08T04:27:14.897Z,7.18
2019-01-08T04:29:50.384Z,7.16
2019-01-08T04:32:13.225Z,7.13
2019-01-08T04:34:41.530Z,7.13
2019-01-08T04:37:09.812Z,7.20
2019-01-08T04:39:38.109Z,7.17
2019-01-08T04:42:06.428Z,7.12
2019-01-08T04:44:34.716Z,7.13
2019-01-08T04:47:03.039Z,7.13
2019-01-08T04:49:31.355Z,7.12
2019-01-08T04:51:59.669Z,7.15
2019-01-08T04:54:28.222Z,7.14
2019-01-08T04:56:56.535Z,7.11
2019-01-08T04:59:24.823Z,7.09
2019-01-08T05:01:53.101Z,7.09
2019-01-08T05:04:21.414Z,7.05
2019-01-08T05:06:49.728Z,7.07
2019-01-08T05:09:18.034Z,6.98
2019-01-08T05:11:46.331Z,6.99
2019-01-08T05:14:14.633Z,7.02
2019-01-08T05:16:42.929Z,7.04
2019-01-08T05:19:11.241Z,7.04
2019-01-08T05:21:39.542Z,7.08
2019-01-08T05:24:07.823Z,7.09
2019-01-08T05:26:36.145Z,7.12
2019-01-08T05:29:04.441Z,7.18
2019-01-08T05:31:32.994Z,7.24
2019-01-08T05:34:01.289Z,7.30
2019-01-08T05:36:29.591Z,7.35
2019-01-08T05:38:57.899Z,7.26
2019-01-08T05:41:26.192Z,7.24
2019-01-08T05:43:54.776Z,7.17
2019-01-08T05:46:23.059Z,7.07
2019-01-08T05:48:51.364Z,6.93
2019-01-08T05:51:19.887Z,6.83
2019-01-08T05:53:48.195Z,6.76
2019-01-08T05:56:16.478Z,6.77
2019-01-08T05:58:44.773Z,6.75
2019-01-08T06:01:13.077Z,6.71
2019-01-08T06:03:41.355Z,6.65
2019-01-08T06:06:09.676Z,6.70
2019-01-08T06:08:37.962Z,6.66
2019-01-08T06:11:06.343Z,6.65
2019-01-08T06:13:34.637Z,6.68
2019-01-08T06:16:02.937Z,6.69
2019-01-08T06:18:31.252Z,6.75
2019-01-08T06:20:59.787Z,6.77
2019-01-08T06:23:28.331Z,6.81
2019-01-08T06:25:56.877Z,6.85
2019-01-08T06:28:25.420Z,6.91
2019-01-08T06:30:53.720Z,6.92
2019-01-08T06:33:22.014Z,6.88
2019-01-08T06:35:50.580Z,6.88
2019-01-08T06:38:18.873Z,6.83
2019-01-08T06:40:47.173Z,6.81
2019-01-08T06:43:17.498Z,6.80
2019-01-08T06:45:45.572Z,6.77
2019-01-08T06:48:13.863Z,6.78
2019-01-08T06:50:42.168Z,6.78
2019-01-08T06:53:10.460Z,6.78
2019-01-08T06:55:38.777Z,6.82
2019-01-08T06:58:07.060Z,6.81
2019-01-08T07:00:35.376Z,6.85
2019-01-08T07:03:03.921Z,6.85
2019-01-08T07:05:32.241Z,6.91
2019-01-08T07:08:00.550Z,6.98
2019-01-08T07:10:28.836Z,7.00
2019-01-08T07:12:57.137Z,6.99
2019-01-08T07:15:25.421Z,7.03
2019-01-08T07:17:53.733Z,7.08
2019-01-08T07:20:22.015Z,7.04
2019-01-08T07:22:50.316Z,7.03
2019-01-08T07:25:18.599Z,7.06
2019-01-08T07:27:46.883Z,6.99
2019-01-08T07:30:15.196Z,7.06
2019-01-08T07:32:43.481Z,7.06
2019-01-08T07:35:11.797Z,7.02
2019-01-08T07:37:40.097Z,7.01
2019-01-08T07:40:08.416Z,7.05
2019-01-08T07:42:36.704Z,6.99
2019-01-08T07:45:05.581Z,7.02
2019-01-08T07:47:33.864Z,7.10
2019-01-08T07:50:02.168Z,7.12
2019-01-08T07:52:30.468Z,7.08
2019-01-08T07:54:58.748Z,7.06
2019-01-08T07:57:27.062Z,7.08
2019-01-08T07:59:55.344Z,7.12
2019-01-08T08:02:23.651Z,7.13
2019-01-08T08:04:52.192Z,7.10
2019-01-08T08:07:20.497Z,7.12
2019-01-08T08:09:48.800Z,7.14
2019-01-08T08:12:17.110Z,7.15
2019-01-08T08:14:45.404Z,7.10
2019-01-08T08:17:13.688Z,7.12
2019-01-08T08:19:42.004Z,7.13
2019-01-08T08:22:10.301Z,7.17
2019-01-08T08:24:38.604Z,7.17
2019-01-08T08:27:06.902Z,7.09
2019-01-08T08:29:35.474Z,7.08
2019-01-08T08:32:04.228Z,7.09
2019-01-08T08:34:32.561Z,7.09
2019-01-08T08:37:00.848Z,7.13
2019-01-08T08:39:29.132Z,7.15
2019-01-08T08:41:57.433Z,7.13
2019-01-08T08:44:25.712Z,7.17
2019-01-08T08:46:54.027Z,7.10
2019-01-08T08:49:22.585Z,7.16
2019-01-08T08:51:51.136Z,7.16
2019-01-08T08:54:19.673Z,7.05
2019-01-08T08:56:47.982Z,7.09
2019-01-08T08:59:16.280Z,7.15
2019-01-08T09:01:44.574Z,7.10
2019-01-08T09:04:12.884Z,7.14
2019-01-08T09:06:41.181Z,7.15
2019-01-08T09:09:09.487Z,7.05
2019-01-08T09:11:37.767Z,7.08
2019-01-08T09:14:06.346Z,7.12
2019-01-08T09:16:34.653Z,7.08
2019-01-08T09:19:02.956Z,7.00
2019-01-08T09:21:31.240Z,7.01
2019-01-08T09:23:59.791Z,7.04
2019-01-08T09:26:28.119Z,6.97
2019-01-08T09:28:56.426Z,6.94
2019-01-08T09:31:24.724Z,6.95
2019-01-08T09:33:53.025Z,6.95
2019-01-08T09:36:21.331Z,6.83
2019-01-08T09:38:49.662Z,6.79
2019-01-08T09:41:18.009Z,6.76
2019-01-08T09:43:46.321Z,6.79
2019-01-08T09:46:14.624Z,6.83
2019-01-08T09:48:42.925Z,6.81
2019-01-08T09:51:11.212Z,6.85
2019-01-08T09:53:39.534Z,6.88
2019-01-08T09:56:08.060Z,6.88
2019-01-08T09:58:36.624Z,6.82
2019-01-08T10:01:04.920Z,6.83
2019-01-08T10:03:33.222Z,6.89
2019-01-08T10:06:01.534Z,6.91
2019-01-08T10:08:30.094Z,6.92
2019-01-08T10:10:58.408Z,6.92
2019-01-08T10:13:26.701Z,6.99
2019-01-08T10:15:55.012Z,7.09
2019-01-08T10:18:23.308Z,7.15
2019-01-08T10:20:51.620Z,7.23
2019-01-08T10:23:19.903Z,7.30
2019-01-08T10:25:48.208Z,7.27
2019-01-08T10:28:16.760Z,7.28
2019-01-08T10:30:45.044Z,7.24
2019-01-08T10:33:13.442Z,7.22
2019-01-08T10:35:41.727Z,7.19
2019-01-08T10:38:10.042Z,7.18
2019-01-08T10:40:38.340Z,7.15
2019-01-08T10:43:06.710Z,7.14
2019-01-08T10:45:35.036Z,7.14
2019-01-08T10:48:03.339Z,7.17
2019-01-08T10:50:31.649Z,7.21
2019-01-08T10:52:59.937Z,7.25
2019-01-08T10:55:28.243Z,7.28
2019-01-08T10:57:56.785Z,7.27
2019-01-08T11:00:25.072Z,7.25
2019-01-08T11:02:53.376Z,7.27
2019-01-08T11:05:21.753Z,7.24
2019-01-08T11:07:50.036Z,7.29
2019-01-08T11:10:18.344Z,7.27
2019-01-08T11:12:46.662Z,7.21
2019-01-08T11:15:14.943Z,7.20
2019-01-08T11:17:43.249Z,7.20
2019-01-08T11:20:11.556Z,7.20
2019-01-08T11:22:39.857Z,7.31
2019-01-08T11:25:08.156Z,7.34
2019-01-08T11:27:36.440Z,7.41
2019-01-08T11:30:06.297Z,7.45
2019-01-08T11:32:34.598Z,7.54
2019-01-08T11:35:03.160Z,7.60
2019-01-08T11:37:31.668Z,7.56
2019-01-08T11:40:00.221Z,7.56
2019-01-08T11:42:28.536Z,7.45
2019-01-08T11:44:56.833Z,7.25
2019-01-08T11:47:25.118Z,7.24
2019-01-08T11:49:53.435Z,7.32
2019-01-08T11:52:21.730Z,7.36
2019-01-08T11:54:50.285Z,7.41
2019-01-08T11:57:18.577Z,7.43
2019-01-08T11:59:48.237Z,7.49
2019-01-08T12:02:16.565Z,7.55
2019-01-08T12:04:45.142Z,7.57
2019-01-08T12:07:13.439Z,7.58
2019-01-08T12:09:41.986Z,7.50
2019-01-08T12:12:10.301Z,7.48
2019-01-08T12:14:38.610Z,7.58
2019-01-08T12:17:06.914Z,7.68
2019-01-08T12:19:35.464Z,7.77
2019-01-08T12:22:03.756Z,7.91
2019-01-08T12:24:32.059Z,7.92
2019-01-08T12:27:00.344Z,7.87
2019-01-08T12:29:28.690Z,7.91
2019-01-08T12:32:05.660Z,7.94
2019-01-08T12:34:27.068Z,7.77
2019-01-08T12:36:55.328Z,7.75
2019-01-08T12:39:23.614Z,7.61
2019-01-08T12:41:51.939Z,7.35
2019-01-08T12:44:20.222Z,7.09
2019-01-08T12:46:48.769Z,6.79
2019-01-08T12:49:17.092Z,6.57
2019-01-08T12:51:45.385Z,6.44
2019-01-08T12:54:13.789Z,6.29
2019-01-08T12:56:42.074Z,6.22
2019-01-08T12:59:10.351Z,6.19
2019-01-08T13:01:38.651Z,6.15
2019-01-08T13:04:07.176Z,6.18
2019-01-08T13:06:35.808Z,6.17
2019-01-08T13:09:06.204Z,6.20
2019-01-08T13:11:34.531Z,6.25
2019-01-08T13:14:02.820Z,6.32
2019-01-08T13:16:31.109Z,6.36
2019-01-08T13:18:59.430Z,6.47
2019-01-08T13:21:27.723Z,6.59
2019-01-08T13:23:56.033Z,6.80
2019-01-08T13:26:24.316Z,6.89
2019-01-08T13:28:52.869Z,6.94
2019-01-08T13:31:21.181Z,7.01
2019-01-08T13:33:49.483Z,7.11
2019-01-08T13:36:17.799Z,7.15
2019-01-08T13:38:46.330Z,7.17
2019-01-08T13:41:14.895Z,7.01
2019-01-08T13:43:43.182Z,6.95
2019-01-08T13:46:11.469Z,6.96
2019-01-08T13:48:39.796Z,6.90
2019-01-08T13:51:08.369Z,6.84
2019-01-08T13:53:36.773Z,6.83
2019-01-08T13:56:05.068Z,6.81
2019-01-08T13:58:33.365Z,6.90
2019-01-08T14:01:01.768Z,7.02
2019-01-08T14:03:30.767Z,7.10
2019-01-08T14:05:59.084Z,7.19
2019-01-08T14:08:27.368Z,7.20
2019-01-08T14:10:56.641Z,7.14
2019-01-08T14:13:25.284Z,7.07
2019-01-08T14:15:53.569Z,7.05
2019-01-08T14:18:21.868Z,7.03
2019-01-08T14:20:50.163Z,7.02
2019-01-08T14:23:18.469Z,6.90
2019-01-08T14:25:46.770Z,6.86
2019-01-08T14:28:15.387Z,6.72
2019-01-08T14:30:43.857Z,6.56
2019-01-08T14:33:12.152Z,6.45
2019-01-08T14:35:40.468Z,6.49
2019-01-08T14:38:08.767Z,6.56
2019-01-08T14:40:37.088Z,6.61
2019-01-08T14:43:13.618Z,6.60
2019-01-08T14:45:35.660Z,6.57
2019-01-08T14:48:03.958Z,6.52
2019-01-08T14:50:32.248Z,6.41
2019-01-08T14:53:00.824Z,6.37
2019-01-08T14:55:29.118Z,6.32
2019-01-08T14:57:57.433Z,6.23
2019-01-08T15:00:25.721Z,6.20
2019-01-08T15:02:54.054Z,6.22
2019-01-08T15:05:22.372Z,6.22
2019-01-08T15:07:50.678Z,6.21
2019-01-08T15:10:20.090Z,6.18
2019-01-08T15:12:48.388Z,6.19
2019-01-08T15:15:16.657Z,6.07
2019-01-08T15:17:44.969Z,6.06
2019-01-08T15:20:13.274Z,6.04
2019-01-08T15:22:41.596Z,6.04
2019-01-08T15:25:09.883Z,6.07
2019-01-08T15:27:38.186Z,6.09
2019-01-08T15:30:09.227Z,6.06
2019-01-08T15:32:37.773Z,6.06
2019-01-08T15:35:06.080Z,6.03
2019-01-08T15:37:34.396Z,6.05
2019-01-08T15:40:03.014Z,6.02
2019-01-08T15:42:31.314Z,5.96
2019-01-08T15:44:59.605Z,5.89
2019-01-08T15:47:27.989Z,5.82
2019-01-08T15:49:56.278Z,5.77
2019-01-08T15:52:24.578Z,5.84
2019-01-08T15:54:53.131Z,5.95
2019-01-08T15:57:21.467Z,5.97
2019-01-08T15:59:49.740Z,6.04
2019-01-08T16:02:18.029Z,6.10
2019-01-08T16:04:46.338Z,6.11
2019-01-08T16:07:14.687Z,6.20
2019-01-08T16:09:42.990Z,6.22
2019-01-08T16:12:11.298Z,6.26
2019-01-08T16:14:39.619Z,6.24
2019-01-08T16:17:08.165Z,6.33
2019-01-08T16:19:36.462Z,6.41
2019-01-08T16:22:04.789Z,6.48
2019-01-08T16:24:33.073Z,6.49
2019-01-08T16:27:01.384Z,6.48
2019-01-08T16:29:29.684Z,6.52
2019-01-08T16:31:58.257Z,6.51
2019-01-08T16:34:26.540Z,6.53
2019-01-08T16:36:55.089Z,6.55
2019-01-08T16:39:23.404Z,6.58
2019-01-08T16:41:51.703Z,6.58
2019-01-08T16:44:20.002Z,6.63
2019-01-08T16:46:48.288Z,6.63
2019-01-08T16:49:16.612Z,6.65
2019-01-08T16:51:44.900Z,6.58
2019-01-08T16:54:13.186Z,6.55
2019-01-08T16:56:41.748Z,6.53
2019-01-08T16:59:10.043Z,6.47
2019-01-08T17:01:38.359Z,6.39
2019-01-08T17:04:06.640Z,6.42
2019-01-08T17:06:34.924Z,6.39
2019-01-08T17:09:04.213Z,6.35
2019-01-08T17:11:32.495Z,6.32
2019-01-08T17:14:00.809Z,6.27
2019-01-08T17:16:29.192Z,6.24
2019-01-08T17:18:57.509Z,6.32
2019-01-08T17:21:25.802Z,6.33
2019-01-08T17:23:54.110Z,6.37
2019-01-08T17:26:22.635Z,6.35
2019-01-08T17:28:50.932Z,6.37
2019-01-08T17:31:19.245Z,6.36
2019-01-08T17:33:47.785Z,6.38
2019-01-08T17:36:16.100Z,6.37
2019-01-08T17:38:44.385Z,6.35
2019-01-08T17:41:12.931Z,6.30
2019-01-08T17:43:41.212Z,6.20
2019-01-08T17:46:09.516Z,6.17
2019-01-08T17:48:37.799Z,6.14
2019-01-08T17:51:06.093Z,6.04
2019-01-08T17:53:34.404Z,5.96
2019-01-08T17:56:02.960Z,5.83
2019-01-08T17:58:39.779Z,5.71
2019-01-08T18:01:11.206Z,5.58
2019-01-08T18:03:42.828Z,5.55
2019-01-08T18:06:09.763Z,5.55
2019-01-08T18:08:38.064Z,5.47
2019-01-08T18:11:06.361Z,5.44
2019-01-08T18:13:34.662Z,5.35
2019-01-08T18:16:02.983Z,5.27
2019-01-08T18:18:31.281Z,5.23
2019-01-08T18:20:59.596Z,5.18
2019-01-08T18:23:27.881Z,5.20
2019-01-08T18:25:56.176Z,5.26
2019-01-08T18:28:24.462Z,5.33
2019-01-08T18:30:52.758Z,5.45
2019-01-08T18:33:21.059Z,5.52
2019-01-08T18:35:49.624Z,5.55
2019-01-08T18:38:17.928Z,5.53
2019-01-08T18:40:46.227Z,5.51
2019-01-08T18:43:14.534Z,5.54
2019-01-08T18:45:43.104Z,5.55
2019-01-08T18:48:11.416Z,5.54
2019-01-08T18:50:39.715Z,5.59
2019-01-08T18:53:08.257Z,5.61
2019-01-08T18:55:36.556Z,5.61
2019-01-08T18:58:04.853Z,5.55
2019-01-08T19:00:33.165Z,5.50
2019-01-08T19:03:01.464Z,5.46
2019-01-08T19:05:29.748Z,5.52
2019-01-08T19:07:58.232Z,5.48
2019-01-08T19:10:26.526Z,5.45
2019-01-08T19:12:55.069Z,5.49
2019-01-08T19:15:23.352Z,5.54
2019-01-08T19:17:51.998Z,5.55
2019-01-08T19:20:20.286Z,5.52
2019-01-08T19:22:48.602Z,5.56
2019-01-08T19:25:16.886Z,5.57
2019-01-08T19:27:45.455Z,5.62
2019-01-08T19:30:13.829Z,5.63
2019-01-08T19:32:42.148Z,5.60
2019-01-08T19:35:10.446Z,5.55
2019-01-08T19:37:38.746Z,5.39
2019-01-08T19:40:07.989Z,5.25
2019-01-08T19:42:36.312Z,5.14
2019-01-08T19:45:05.554Z,5.05
2019-01-08T19:47:33.871Z,5.03
2019-01-08T19:50:02.164Z,5.07
2019-01-08T19:52:30.448Z,5.14
2019-01-08T19:54:58.763Z,5.20
2019-01-08T19:57:27.069Z,5.21
2019-01-08T19:59:55.407Z,5.20
2019-01-08T20:02:23.710Z,5.21
2019-01-08T20:04:52.024Z,5.25
2019-01-08T20:07:20.314Z,5.28
2019-01-08T20:09:48.609Z,5.28
2019-01-08T20:12:16.979Z,5.30
2019-01-08T20:14:45.267Z,5.34
2019-01-08T20:17:13.578Z,5.37
2019-01-08T20:19:41.866Z,5.39
2019-01-08T20:22:10.690Z,5.46
2019-01-08T20:24:39.056Z,5.48
2019-01-08T20:27:07.343Z,5.51
2019-01-08T20:29:35.652Z,5.48
2019-01-08T20:32:03.951Z,5.57
2019-01-08T20:34:32.263Z,5.58
2019-01-08T20:37:00.570Z,5.55
2019-01-08T20:39:29.108Z,5.58
2019-01-08T20:41:57.406Z,5.58
2019-01-08T20:44:25.707Z,5.59
2019-01-08T20:46:53.991Z,5.60
2019-01-08T20:49:22.276Z,5.60
2019-01-08T20:51:50.591Z,5.64
2019-01-08T20:54:18.888Z,5.65
2019-01-08T20:56:47.215Z,5.68
2019-01-08T20:59:15.501Z,5.61
2019-01-08T21:01:43.784Z,5.68
2019-01-08T21:04:12.102Z,5.73
2019-01-08T21:06:40.401Z,5.74
2019-01-08T21:09:08.769Z,5.75
2019-01-08T21:11:37.071Z,5.71
2019-01-08T21:14:05.388Z,5.69
2019-01-08T21:16:33.670Z,5.63
2019-01-08T21:19:02.212Z,5.59
2019-01-08T21:21:30.746Z,5.56
2019-01-08T21:23:59.066Z,5.54
2019-01-08T21:26:27.621Z,5.55
2019-01-08T21:28:55.904Z,5.56
2019-01-08T21:31:24.227Z,5.57
2019-01-08T21:33:52.516Z,5.60
2019-01-08T21:36:20.830Z,5.65
2019-01-08T21:38:49.116Z,5.64
2019-01-08T21:41:17.424Z,5.64
2019-01-08T21:43:45.712Z,5.63
2019-01-08T21:46:14.261Z,5.58
2019-01-08T21:48:42.563Z,5.57
2019-01-08T21:51:11.119Z,5.60
2019-01-08T21:53:40.064Z,5.58
2019-01-08T21:56:08.372Z,5.59
2019-01-08T21:58:36.903Z,5.62
2019-01-08T22:01:05.214Z,5.62
2019-01-08T22:03:33.501Z,5.64
2019-01-08T22:06:01.831Z,5.64
2019-01-08T22:08:30.120Z,5.67
2019-01-08T22:10:58.429Z,5.63
2019-01-08T22:13:26.728Z,5.63
2019-01-08T22:15:55.012Z,5.59
2019-01-08T22:18:23.311Z,5.56
2019-01-08T22:20:51.595Z,5.59
2019-01-08T22:23:19.899Z,5.56
2019-01-08T22:25:48.188Z,5.49
2019-01-08T22:28:16.484Z,5.57
2019-01-08T22:30:44.789Z,5.54
2019-01-08T22:33:13.093Z,5.56
2019-01-08T22:35:41.517Z,5.59
2019-01-08T22:38:09.832Z,5.60
2019-01-08T22:40:38.125Z,5.59
2019-01-08T22:43:06.430Z,5.58
2019-01-08T22:45:34.712Z,5.56
2019-01-08T22:48:03.028Z,5.58
2019-01-08T22:50:31.565Z,5.54
2019-01-08T22:53:00.141Z,5.53
2019-01-08T22:55:28.684Z,5.55
2019-01-08T22:57:56.992Z,5.52
2019-01-08T23:00:29.858Z,5.49
2019-01-08T23:02:58.237Z,5.49
2019-01-08T23:05:26.537Z,5.46
2019-01-08T23:07:54.834Z,5.47
2019-01-08T23:10:23.157Z,5.48
2019-01-08T23:12:51.442Z,5.47
2019-01-08T23:15:19.753Z,5.45
2019-01-08T23:17:48.049Z,5.49
2019-01-08T23:20:16.352Z,5.50
2019-01-08T23:22:44.901Z,5.54
2019-01-08T23:25:13.367Z,5.56
2019-01-08T23:27:41.904Z,5.53
2019-01-08T23:30:10.449Z,5.56
2019-01-08T23:32:38.995Z,5.54
2019-01-08T23:35:07.723Z,5.50
2019-01-08T23:37:36.281Z,5.49
2019-01-08T23:40:06.907Z,5.45
2019-01-08T23:42:35.449Z,5.51
2019-01-08T23:45:04.034Z,5.50
2019-01-08T23:47:32.416Z,5.52
2019-01-08T23:50:00.715Z,5.47
2019-01-08T23:52:32.171Z,5.39
2019-01-08T23:55:00.846Z,5.41
2019-01-08T23:57:29.688Z,5.40
2019-01-08T23:59:58.233Z,5.47
